createdAt,value
2018-09-21T00:01:18.720Z,2.10
2018-09-21T00:03:53.000Z,2.00
2018-09-21T00:06:22.148Z,2.40
2018-09-21T00:08:51.009Z,2.47
2018-09-21T00:11:20.204Z,2.53
2018-09-21T00:13:49.621Z,2.53
2018-09-21T00:16:18.921Z,2.37
2018-09-21T00:18:47.647Z,2.40
2018-09-21T00:21:16.620Z,2.20
2018-09-21T00:23:45.288Z,2.10
2018-09-21T00:26:13.927Z,2.57
2018-09-21T00:28:42.562Z,2.60
2018-09-21T00:31:11.206Z,2.27
2018-09-21T00:33:39.873Z,2.40
2018-09-21T00:36:08.915Z,2.33
2018-09-21T00:38:37.560Z,2.70
2018-09-21T00:41:06.245Z,2.30
2018-09-21T00:43:34.935Z,2.87
2018-09-21T00:46:03.623Z,2.60
2018-09-21T00:48:32.257Z,2.43
2018-09-21T00:51:00.941Z,2.97
2018-09-21T00:53:29.592Z,3.03
2018-09-21T00:55:58.247Z,3.00
2018-09-21T00:58:26.886Z,3.30
2018-09-21T01:00:55.515Z,3.07
2018-09-21T01:03:24.148Z,3.17
2018-09-21T01:05:52.744Z,3.03
2018-09-21T01:08:21.404Z,3.30
2018-09-21T01:10:50.999Z,2.70
2018-09-21T01:13:19.635Z,2.43
2018-09-21T01:15:48.477Z,2.53
2018-09-21T01:18:17.726Z,2.60
2018-09-21T01:20:46.385Z,2.70
2018-09-21T01:23:15.025Z,2.90
2018-09-21T01:25:43.702Z,2.50
2018-09-21T01:28:12.319Z,2.60
2018-09-21T01:30:40.953Z,2.40
2018-09-21T01:33:09.600Z,2.43
2018-09-21T01:35:38.374Z,2.87
2018-09-21T01:38:07.101Z,3.00
2018-09-21T01:40:35.800Z,2.93
2018-09-21T01:43:04.540Z,2.70
2018-09-21T01:45:33.200Z,2.97
2018-09-21T01:48:01.908Z,2.90
2018-09-21T01:50:30.557Z,2.70
2018-09-21T01:52:59.188Z,2.90
2018-09-21T01:55:27.827Z,2.90
2018-09-21T01:57:56.446Z,3.10
2018-09-21T02:00:25.069Z,3.23
2018-09-21T02:02:53.695Z,3.27
2018-09-21T02:05:22.378Z,3.13
2018-09-21T02:07:51.012Z,2.83
2018-09-21T02:10:19.730Z,2.73
2018-09-21T02:12:48.423Z,3.37
2018-09-21T02:15:17.066Z,3.07
2018-09-21T02:17:45.727Z,3.23
2018-09-21T02:20:14.374Z,3.30
2018-09-21T02:22:42.995Z,3.20
2018-09-21T02:25:11.636Z,3.43
2018-09-21T02:27:40.239Z,3.50
2018-09-21T02:30:08.937Z,3.70
2018-09-21T02:32:37.609Z,4.40
2018-09-21T02:35:06.468Z,4.47
2018-09-21T02:37:35.071Z,4.53
2018-09-21T02:40:03.787Z,4.67
2018-09-21T02:42:32.460Z,4.70
2018-09-21T02:45:01.093Z,4.20
2018-09-21T02:47:29.703Z,5.43
2018-09-21T02:49:58.335Z,4.80
2018-09-21T02:52:26.979Z,4.67
2018-09-21T02:54:55.601Z,4.40
2018-09-21T02:57:24.265Z,4.70
2018-09-21T02:59:52.908Z,4.13
2018-09-21T03:02:21.617Z,4.50
2018-09-21T03:04:53.980Z,4.43
2018-09-21T03:07:23.208Z,4.47
2018-09-21T03:09:51.883Z,4.43
2018-09-21T03:12:20.611Z,4.57
2018-09-21T03:14:49.380Z,4.80
2018-09-21T03:17:18.039Z,4.90
2018-09-21T03:19:46.687Z,4.70
2018-09-21T03:22:15.329Z,5.30
2018-09-21T03:24:43.968Z,4.50
2018-09-21T03:27:12.634Z,4.67
2018-09-21T03:29:41.295Z,4.60
2018-09-21T03:32:09.959Z,4.40
2018-09-21T03:34:38.613Z,5.23
2018-09-21T03:37:07.279Z,4.83
2018-09-21T03:39:36.030Z,4.30
2018-09-21T03:42:04.728Z,4.83
2018-09-21T03:44:33.468Z,4.80
2018-09-21T03:47:02.160Z,4.87
2018-09-21T03:49:30.796Z,4.63
2018-09-21T03:51:59.452Z,4.80
2018-09-21T03:54:28.089Z,4.67
2018-09-21T03:56:56.738Z,5.00
2018-09-21T03:59:25.417Z,4.63
2018-09-21T04:01:54.063Z,4.67
2018-09-21T04:04:22.750Z,4.47
2018-09-21T04:06:51.538Z,5.20
2018-09-21T04:09:20.184Z,4.93
2018-09-21T04:11:48.856Z,5.30
2018-09-21T04:14:17.547Z,4.60
2018-09-21T04:16:46.183Z,5.30
2018-09-21T04:19:14.923Z,5.17
2018-09-21T04:21:43.576Z,4.57
2018-09-21T04:24:12.943Z,4.87
2018-09-21T04:26:41.621Z,4.83
2018-09-21T04:31:44.107Z,4.97
2018-09-21T04:34:12.747Z,5.43
2018-09-21T04:36:41.407Z,11.03
2018-09-21T04:39:11.680Z,5.67
2018-09-21T04:41:40.362Z,5.70
2018-09-21T04:44:09.530Z,5.33
2018-09-21T04:46:38.701Z,5.47
2018-09-21T04:49:07.624Z,5.43
2018-09-21T04:51:36.244Z,5.47
2018-09-21T04:54:04.958Z,6.00
2018-09-21T04:56:33.716Z,5.87
2018-09-21T04:59:02.374Z,6.03
2018-09-21T05:01:31.077Z,6.17
2018-09-21T05:03:59.701Z,5.57
2018-09-21T05:06:28.402Z,6.50
2018-09-21T05:08:57.060Z,6.40
2018-09-21T05:11:25.727Z,6.60
2018-09-21T05:13:54.477Z,6.40
2018-09-21T05:16:24.084Z,6.37
2018-09-21T05:18:52.835Z,5.47
2018-09-21T05:21:21.466Z,5.97
2018-09-21T05:23:50.095Z,6.10
2018-09-21T05:26:18.767Z,6.47
2018-09-21T05:28:47.563Z,6.00
2018-09-21T05:31:16.207Z,6.20
2018-09-21T05:33:44.839Z,6.00
2018-09-21T05:36:13.500Z,11.47
2018-09-21T05:38:42.158Z,5.80
2018-09-21T05:41:10.798Z,7.43
2018-09-21T05:43:39.443Z,5.80
2018-09-21T05:46:08.283Z,5.73
2018-09-21T05:48:36.910Z,5.80
2018-09-21T05:51:05.563Z,5.13
2018-09-21T05:53:34.230Z,5.80
2018-09-21T05:56:02.964Z,5.57
2018-09-21T05:58:31.651Z,5.17
2018-09-21T06:01:00.276Z,5.50
2018-09-21T06:03:28.967Z,5.00
2018-09-21T06:05:57.638Z,5.23
2018-09-21T06:08:26.350Z,5.80
2018-09-21T06:10:54.985Z,5.30
2018-09-21T06:13:23.700Z,5.33
2018-09-21T06:15:52.360Z,5.00
2018-09-21T06:18:21.131Z,5.07
2018-09-21T06:20:49.859Z,5.20
2018-09-21T06:23:18.521Z,5.00
2018-09-21T06:25:47.226Z,5.60
2018-09-21T06:28:15.931Z,5.77
2018-09-21T06:30:44.577Z,5.80
2018-09-21T06:33:13.240Z,5.70
2018-09-21T06:35:41.937Z,5.50
2018-09-21T06:38:10.644Z,5.83
2018-09-21T06:40:39.374Z,5.77
2018-09-21T06:43:08.104Z,6.23
2018-09-21T06:45:36.785Z,6.47
2018-09-21T06:48:06.660Z,7.23
2018-09-21T06:50:35.376Z,7.70
2018-09-21T06:53:04.074Z,8.00
2018-09-21T06:55:33.232Z,8.40
2018-09-21T06:58:02.125Z,8.73
2018-09-21T07:00:30.773Z,8.50
2018-09-21T07:02:59.414Z,8.57
2018-09-21T07:05:28.153Z,8.90
2018-09-21T07:07:56.850Z,10.30
2018-09-21T07:10:25.573Z,10.33
2018-09-21T07:12:54.243Z,10.73
2018-09-21T07:15:22.944Z,9.23
2018-09-21T07:17:51.571Z,8.67
2018-09-21T07:20:20.258Z,9.23
2018-09-21T07:22:48.950Z,9.03
2018-09-21T07:25:17.786Z,10.33
2018-09-21T07:27:46.484Z,9.70
2018-09-21T07:30:19.077Z,8.73
2018-09-21T07:32:47.877Z,10.07
2018-09-21T07:35:16.599Z,9.13
2018-09-21T07:37:45.263Z,9.70
2018-09-21T07:40:14.045Z,9.87
2018-09-21T07:42:42.734Z,10.63
2018-09-21T07:45:11.402Z,11.20
2018-09-21T07:47:40.161Z,9.37
2018-09-21T07:50:08.968Z,10.67
2018-09-21T07:52:37.692Z,9.40
2018-09-21T07:55:06.406Z,10.00
2018-09-21T07:57:35.104Z,9.40
2018-09-21T08:00:05.086Z,10.27
2018-09-21T08:02:33.795Z,10.47
2018-09-21T08:05:02.480Z,10.07
2018-09-21T08:07:31.196Z,9.03
2018-09-21T08:09:59.852Z,10.03
2018-09-21T08:12:28.568Z,9.23
2018-09-21T08:14:57.224Z,9.20
2018-09-21T08:17:25.920Z,8.70
2018-09-21T08:19:54.592Z,8.50
2018-09-21T08:22:23.256Z,7.97
2018-09-21T08:24:52.043Z,7.83
2018-09-21T08:27:21.027Z,7.60
2018-09-21T08:29:49.944Z,7.20
2018-09-21T08:32:18.630Z,7.83
2018-09-21T08:34:47.404Z,7.33
2018-09-21T08:37:16.144Z,7.97
2018-09-21T08:39:44.829Z,7.70
2018-09-21T08:42:13.595Z,7.40
2018-09-21T08:44:42.348Z,7.50
2018-09-21T08:47:11.105Z,6.40
2018-09-21T08:49:39.861Z,8.30
2018-09-21T08:52:08.696Z,6.77
2018-09-21T08:54:37.423Z,6.47
2018-09-21T08:57:06.147Z,6.20
2018-09-21T08:59:34.938Z,6.60
2018-09-21T09:02:03.642Z,5.77
2018-09-21T09:04:32.323Z,5.17
2018-09-21T09:07:00.978Z,4.93
2018-09-21T09:09:29.654Z,7.63
2018-09-21T09:11:58.395Z,4.63
2018-09-21T09:14:27.125Z,4.73
2018-09-21T09:16:55.779Z,4.57
2018-09-21T09:19:24.470Z,4.70
2018-09-21T09:21:53.176Z,5.03
2018-09-21T09:24:21.889Z,4.30
2018-09-21T09:26:50.534Z,3.97
2018-09-21T09:29:19.141Z,3.80
2018-09-21T09:31:47.810Z,4.17
2018-09-21T09:34:16.508Z,4.60
2018-09-21T09:36:45.243Z,5.27
2018-09-21T09:39:14.504Z,5.93
2018-09-21T09:41:43.137Z,4.10
2018-09-21T09:44:12.116Z,4.73
2018-09-21T09:46:41.048Z,4.50
2018-09-21T09:49:09.880Z,4.43
2018-09-21T09:51:38.648Z,5.20
2018-09-21T09:54:07.516Z,4.03
2018-09-21T09:56:36.361Z,4.97
2018-09-21T09:59:05.076Z,4.23
2018-09-21T10:01:33.825Z,4.63
2018-09-21T10:04:02.685Z,4.70
2018-09-21T10:06:31.759Z,4.22
2018-09-21T10:09:00.418Z,4.63
2018-09-21T10:11:29.672Z,3.70
2018-09-21T10:13:58.411Z,4.17
2018-09-21T10:16:27.168Z,4.27
2018-09-21T10:18:56.000Z,4.13
2018-09-21T10:21:24.809Z,3.77
2018-09-21T10:23:53.544Z,3.97
2018-09-21T10:26:22.248Z,3.83
2018-09-21T10:28:51.186Z,3.77
2018-09-21T10:31:20.145Z,3.93
2018-09-21T10:33:49.044Z,3.67
2018-09-21T10:36:17.736Z,4.35
2018-09-21T10:38:46.502Z,3.93
2018-09-21T10:41:15.307Z,4.10
2018-09-21T10:43:44.045Z,4.60
2018-09-21T10:46:12.788Z,4.10
2018-09-21T10:48:41.533Z,4.17
2018-09-21T10:51:10.251Z,4.33
2018-09-21T10:53:39.204Z,4.33
2018-09-21T10:56:08.019Z,3.67
2018-09-21T10:58:36.871Z,3.67
2018-09-21T11:01:05.668Z,4.35
2018-09-21T11:03:34.472Z,4.80
2018-09-21T11:06:03.187Z,3.90
2018-09-21T11:08:31.961Z,5.33
2018-09-21T11:11:00.632Z,4.05
2018-09-21T11:13:29.345Z,3.20
2018-09-21T11:15:58.048Z,2.80
2018-09-21T11:18:26.730Z,3.55
2018-09-21T11:20:55.709Z,3.30
2018-09-21T11:23:24.452Z,3.30
2018-09-21T11:25:53.229Z,3.77
2018-09-21T11:28:21.981Z,3.60
2018-09-21T11:30:50.666Z,3.70
2018-09-21T11:33:19.427Z,3.35
2018-09-21T11:35:48.197Z,3.00
2018-09-21T11:38:16.979Z,3.42
2018-09-21T11:40:45.651Z,3.20
2018-09-21T11:43:14.344Z,2.70
2018-09-21T11:45:43.213Z,3.00
2018-09-21T11:48:11.985Z,2.80
2018-09-21T11:50:40.752Z,3.00
2018-09-21T11:53:09.487Z,3.42
2018-09-21T11:55:38.311Z,3.10
2018-09-21T11:58:07.832Z,3.62
2018-09-21T12:00:36.744Z,3.10
2018-09-21T12:03:05.469Z,2.47
2018-09-21T12:05:34.665Z,2.62
2018-09-21T12:08:03.560Z,2.62
2018-09-21T12:10:32.405Z,2.55
2018-09-21T12:13:01.149Z,2.20
2018-09-21T12:15:29.870Z,2.30
2018-09-21T12:17:58.633Z,2.60
2018-09-21T12:20:27.724Z,2.25
2018-09-21T12:22:56.402Z,1.98
2018-09-21T12:25:25.164Z,3.30
2018-09-21T12:27:53.845Z,2.27
2018-09-21T12:30:22.591Z,2.27
2018-09-21T12:32:51.364Z,2.50
2018-09-21T12:35:20.123Z,2.00
2018-09-21T12:37:48.852Z,2.10
2018-09-21T12:40:17.644Z,2.15
2018-09-21T12:42:46.307Z,2.30
2018-09-21T12:45:15.105Z,2.00
2018-09-21T12:47:43.775Z,2.17
2018-09-21T12:50:12.534Z,2.02
2018-09-21T12:52:41.310Z,2.10
2018-09-21T12:55:10.197Z,2.20
2018-09-21T12:57:38.975Z,2.60
2018-09-21T13:00:10.909Z,2.12
2018-09-21T13:02:40.039Z,2.05
2018-09-21T13:05:08.771Z,2.33
2018-09-21T13:07:37.496Z,2.17
2018-09-21T13:10:06.364Z,2.37
2018-09-21T13:12:35.132Z,2.35
2018-09-21T13:15:03.977Z,2.20
2018-09-21T13:17:32.632Z,2.00
2018-09-21T13:20:01.357Z,1.80
2018-09-21T13:22:30.307Z,2.45
2018-09-21T13:24:59.099Z,2.20
2018-09-21T13:27:27.831Z,2.00
2018-09-21T13:29:56.654Z,2.05
2018-09-21T13:32:25.460Z,2.30
2018-09-21T13:34:54.183Z,2.47
2018-09-21T13:37:22.858Z,2.40
2018-09-21T13:39:51.594Z,2.60
2018-09-21T13:42:20.375Z,2.62
2018-09-21T13:44:49.135Z,5.55
2018-09-21T13:47:17.828Z,2.20
2018-09-21T13:49:46.612Z,2.60
2018-09-21T13:52:15.342Z,2.40
2018-09-21T13:54:44.140Z,2.25
2018-09-21T13:57:12.820Z,2.30
2018-09-21T13:59:41.557Z,2.27
2018-09-21T14:02:10.264Z,2.47
2018-09-21T14:04:38.944Z,2.80
2018-09-21T14:07:07.594Z,2.40
2018-09-21T14:09:36.316Z,2.55
2018-09-21T14:12:04.976Z,2.37
2018-09-21T14:14:33.745Z,2.10
2018-09-21T14:17:02.524Z,1.98
2018-09-21T14:19:31.213Z,2.42
2018-09-21T14:22:00.000Z,1.85
2018-09-21T14:24:28.726Z,2.17
2018-09-21T14:26:57.487Z,2.02
2018-09-21T14:29:26.338Z,1.80
2018-09-21T14:31:55.094Z,2.00
2018-09-21T14:34:23.878Z,1.87
2018-09-21T14:36:52.669Z,2.12
2018-09-21T14:39:21.376Z,2.10
2018-09-21T14:41:50.055Z,1.70
2018-09-21T14:44:18.834Z,2.08
2018-09-21T14:46:47.509Z,2.00
2018-09-21T14:49:16.239Z,1.90
2018-09-21T14:51:45.633Z,2.05
2018-09-21T14:54:14.529Z,2.00
2018-09-21T14:56:43.209Z,2.02
2018-09-21T14:59:11.964Z,2.12
2018-09-21T15:01:40.775Z,2.33
2018-09-21T15:04:09.632Z,2.27
2018-09-21T15:06:38.467Z,1.77
2018-09-21T15:09:09.259Z,2.05
2018-09-21T15:11:38.541Z,2.00
2018-09-21T15:14:07.414Z,2.10
2018-09-21T15:16:36.409Z,2.35
2018-09-21T15:19:05.249Z,2.10
2018-09-21T15:21:34.332Z,2.30
2018-09-21T15:24:03.359Z,2.47
2018-09-21T15:26:32.130Z,2.37
2018-09-21T15:29:00.909Z,2.20
2018-09-21T15:31:29.613Z,3.17
2018-09-21T15:33:58.602Z,2.45
2018-09-21T15:36:27.384Z,2.47
2018-09-21T15:38:56.109Z,2.35
2018-09-21T15:41:24.838Z,2.45
2018-09-21T15:43:53.597Z,2.10
2018-09-21T15:46:22.308Z,2.20
2018-09-21T15:48:51.164Z,2.60
2018-09-21T15:51:19.895Z,1.97
2018-09-21T15:53:48.851Z,2.13
2018-09-21T15:56:17.745Z,2.53
2018-09-21T15:58:46.657Z,2.53
2018-09-21T16:01:15.436Z,3.30
2018-09-21T16:03:44.189Z,2.17
2018-09-21T16:06:13.075Z,2.80
2018-09-21T16:08:42.655Z,2.63
2018-09-21T16:11:11.495Z,2.57
2018-09-21T16:13:40.365Z,2.67
2018-09-21T16:16:09.213Z,2.40
2018-09-21T16:18:37.942Z,2.80
2018-09-21T16:21:06.711Z,3.00
2018-09-21T16:23:35.519Z,2.30
2018-09-21T16:26:04.221Z,2.50
2018-09-21T16:28:32.931Z,2.00
2018-09-21T16:31:01.746Z,2.60
2018-09-21T16:33:30.489Z,2.43
2018-09-21T16:35:59.367Z,2.97
2018-09-21T16:38:33.655Z,3.10
2018-09-21T16:41:02.690Z,3.23
2018-09-21T16:43:31.491Z,2.47
2018-09-21T16:46:00.223Z,3.00
2018-09-21T16:48:28.949Z,2.63
2018-09-21T16:50:57.786Z,2.57
2018-09-21T16:53:28.214Z,2.70
2018-09-21T16:55:57.919Z,2.50
2018-09-21T16:58:26.676Z,3.10
2018-09-21T17:00:55.434Z,2.40
2018-09-21T17:03:24.140Z,2.40
2018-09-21T17:05:52.886Z,2.50
2018-09-21T17:08:21.585Z,2.80
2018-09-21T17:10:50.377Z,2.87
2018-09-21T17:13:19.205Z,2.60
2018-09-21T17:15:48.118Z,2.53
2018-09-21T17:18:16.928Z,2.60
2018-09-21T17:20:45.626Z,2.73
2018-09-21T17:23:14.346Z,3.40
2018-09-21T17:25:43.070Z,2.67
2018-09-21T17:28:12.724Z,2.73
2018-09-21T17:30:41.482Z,3.27
2018-09-21T17:33:10.459Z,2.73
2018-09-21T17:35:39.275Z,2.70
2018-09-21T17:38:08.018Z,2.77
2018-09-21T17:40:36.758Z,2.87
2018-09-21T17:43:05.598Z,2.60
2018-09-21T17:45:34.384Z,2.83
2018-09-21T17:48:03.162Z,2.90
2018-09-21T17:50:32.203Z,2.67
2018-09-21T17:53:00.988Z,2.77
2018-09-21T17:55:29.761Z,2.60
2018-09-21T17:57:58.510Z,2.73
2018-09-21T18:00:27.334Z,2.70
2018-09-21T18:02:56.058Z,2.60
2018-09-21T18:05:24.998Z,2.80
2018-09-21T18:07:53.732Z,2.40
2018-09-21T18:10:22.448Z,2.30
2018-09-21T18:12:51.189Z,2.93
